sensor_id;sensor_type;location;lat;lon;timestamp;P1;durP1;ratioP1;P2;durP2;ratioP2
73893;SDS011;62699;50.534;12.784;2024-03-06T00:03:29;17.58;;;8.18;;
73893;SDS011;62699;50.534;12.784;2024-03-06T00:08:29;17.50;;;7.75;;
73893;SDS011;62699;50.534;12.784;2024-03-06T00:13:30;15.77;;;7.65;;
73893;SDS011;62699;50.534;12.784;2024-03-06T00:18:30;14.23;;;6.68;;
73893;SDS011;62699;50.534;12.784;2024-03-06T00:23:30;15.07;;;8.10;;
73893;SDS011;62699;50.534;12.784;2024-03-06T00:28:30;15.90;;;7.60;;
73893;SDS011;62699;50.534;12.784;2024-03-06T00:33:31;17.95;;;8.65;;
73893;SDS011;62699;50.534;12.784;2024-03-06T00:38:31;16.17;;;7.32;;
73893;SDS011;62699;50.534;12.784;2024-03-06T00:43:31;13.98;;;7.70;;
73893;SDS011;62699;50.534;12.784;2024-03-06T00:48:31;13.00;;;6.93;;
73893;SDS011;62699;50.534;12.784;2024-03-06T00:53:32;16.10;;;7.38;;
73893;SDS011;62699;50.534;12.784;2024-03-06T00:58:32;15.80;;;7.45;;
73893;SDS011;62699;50.534;12.784;2024-03-06T01:03:33;12.18;;;6.13;;
73893;SDS011;62699;50.534;12.784;2024-03-06T01:08:33;12.30;;;5.85;;
73893;SDS011;62699;50.534;12.784;2024-03-06T01:13:33;12.75;;;6.82;;
73893;SDS011;62699;50.534;12.784;2024-03-06T01:18:34;11.65;;;5.80;;
73893;SDS011;62699;50.534;12.784;2024-03-06T01:23:34;12.48;;;5.97;;
73893;SDS011;62699;50.534;12.784;2024-03-06T01:28:34;12.75;;;5.43;;
73893;SDS011;62699;50.534;12.784;2024-03-06T01:33:34;12.63;;;6.57;;
73893;SDS011;62699;50.534;12.784;2024-03-06T01:38:35;12.98;;;7.03;;
73893;SDS011;62699;50.534;12.784;2024-03-06T01:43:38;16.80;;;7.40;;
73893;SDS011;62699;50.534;12.784;2024-03-06T01:48:39;11.65;;;6.63;;
73893;SDS011;62699;50.534;12.784;2024-03-06T01:53:40;14.30;;;6.82;;
73893;SDS011;62699;50.534;12.784;2024-03-06T01:58:41;14.82;;;6.72;;
73893;SDS011;62699;50.534;12.784;2024-03-06T02:03:41;13.45;;;6.78;;
73893;SDS011;62699;50.534;12.784;2024-03-06T02:08:42;12.27;;;6.57;;
73893;SDS011;62699;50.534;12.784;2024-03-06T02:13:43;15.00;;;7.03;;
73893;SDS011;62699;50.534;12.784;2024-03-06T02:19:16;18.40;;;7.03;;
73893;SDS011;62699;50.534;12.784;2024-03-06T02:24:10;17.10;;;7.75;;
73893;SDS011;62699;50.534;12.784;2024-03-06T02:29:11;13.95;;;7.45;;
73893;SDS011;62699;50.534;12.784;2024-03-06T02:34:12;13.10;;;6.38;;
73893;SDS011;62699;50.534;12.784;2024-03-06T02:39:12;12.57;;;6.30;;
73893;SDS011;62699;50.534;12.784;2024-03-06T02:44:12;14.02;;;6.43;;
73893;SDS011;62699;50.534;12.784;2024-03-06T02:49:13;13.32;;;6.05;;
73893;SDS011;62699;50.534;12.784;2024-03-06T02:54:13;11.93;;;6.20;;
73893;SDS011;62699;50.534;12.784;2024-03-06T02:59:13;13.57;;;6.88;;
73893;SDS011;62699;50.534;12.784;2024-03-06T03:04:13;15.77;;;6.20;;
73893;SDS011;62699;50.534;12.784;2024-03-06T03:09:14;10.43;;;5.80;;
73893;SDS011;62699;50.534;12.784;2024-03-06T03:14:14;14.63;;;6.32;;
73893;SDS011;62699;50.534;12.784;2024-03-06T03:19:14;14.00;;;7.05;;
73893;SDS011;62699;50.534;12.784;2024-03-06T03:24:16;14.15;;;6.82;;
73893;SDS011;62699;50.534;12.784;2024-03-06T03:29:16;14.75;;;6.50;;
73893;SDS011;62699;50.534;12.784;2024-03-06T03:34:16;13.75;;;7.03;;
73893;SDS011;62699;50.534;12.784;2024-03-06T03:39:16;14.15;;;7.30;;
73893;SDS011;62699;50.534;12.784;2024-03-06T03:44:17;11.55;;;6.13;;
73893;SDS011;62699;50.534;12.784;2024-03-06T03:49:18;13.27;;;6.32;;
73893;SDS011;62699;50.534;12.784;2024-03-06T03:54:19;12.07;;;6.57;;
73893;SDS011;62699;50.534;12.784;2024-03-06T03:59:19;13.32;;;6.00;;
73893;SDS011;62699;50.534;12.784;2024-03-06T04:04:19;12.20;;;6.03;;
73893;SDS011;62699;50.534;12.784;2024-03-06T04:09:19;13.20;;;6.20;;
73893;SDS011;62699;50.534;12.784;2024-03-06T04:14:20;13.68;;;6.60;;
73893;SDS011;62699;50.534;12.784;2024-03-06T04:19:20;13.57;;;5.80;;
73893;SDS011;62699;50.534;12.784;2024-03-06T04:24:21;13.77;;;6.22;;
73893;SDS011;62699;50.534;12.784;2024-03-06T04:29:21;12.25;;;6.60;;
73893;SDS011;62699;50.534;12.784;2024-03-06T04:34:21;12.38;;;6.47;;
73893;SDS011;62699;50.534;12.784;2024-03-06T04:39:23;10.32;;;5.50;;
73893;SDS011;62699;50.534;12.784;2024-03-06T04:44:23;12.95;;;6.15;;
73893;SDS011;62699;50.534;12.784;2024-03-06T04:49:23;11.95;;;6.63;;
73893;SDS011;62699;50.534;12.784;2024-03-06T04:54:24;10.88;;;5.63;;
73893;SDS011;62699;50.534;12.784;2024-03-06T04:59:24;10.32;;;5.20;;
73893;SDS011;62699;50.534;12.784;2024-03-06T05:04:24;13.48;;;6.15;;
73893;SDS011;62699;50.534;12.784;2024-03-06T05:09:25;11.48;;;6.28;;
73893;SDS011;62699;50.534;12.784;2024-03-06T05:14:25;13.55;;;5.68;;
73893;SDS011;62699;50.534;12.784;2024-03-06T05:19:26;13.25;;;7.13;;
73893;SDS011;62699;50.534;12.784;2024-03-06T05:24:32;13.05;;;6.70;;
73893;SDS011;62699;50.534;12.784;2024-03-06T05:29:32;13.18;;;6.45;;
73893;SDS011;62699;50.534;12.784;2024-03-06T05:34:33;15.77;;;7.30;;
73893;SDS011;62699;50.534;12.784;2024-03-06T05:39:34;14.52;;;7.00;;
73893;SDS011;62699;50.534;12.784;2024-03-06T05:44:34;16.92;;;8.85;;
73893;SDS011;62699;50.534;12.784;2024-03-06T05:49:34;17.17;;;6.97;;
73893;SDS011;62699;50.534;12.784;2024-03-06T05:54:34;14.80;;;6.50;;
73893;SDS011;62699;50.534;12.784;2024-03-06T05:59:35;16.20;;;7.50;;
73893;SDS011;62699;50.534;12.784;2024-03-06T06:04:36;14.65;;;6.93;;
73893;SDS011;62699;50.534;12.784;2024-03-06T06:09:36;12.50;;;7.25;;
73893;SDS011;62699;50.534;12.784;2024-03-06T06:14:36;76.80;;;39.53;;
73893;SDS011;62699;50.534;12.784;2024-03-06T06:19:37;102.18;;;47.83;;
73893;SDS011;62699;50.534;12.784;2024-03-06T06:24:37;42.28;;;19.10;;
73893;SDS011;62699;50.534;12.784;2024-03-06T06:29:38;20.17;;;10.20;;
73893;SDS011;62699;50.534;12.784;2024-03-06T06:34:39;17.70;;;7.95;;
73893;SDS011;62699;50.534;12.784;2024-03-06T06:39:39;14.30;;;8.00;;
73893;SDS011;62699;50.534;12.784;2024-03-06T06:44:39;14.27;;;7.55;;
73893;SDS011;62699;50.534;12.784;2024-03-06T06:49:41;16.23;;;7.63;;
73893;SDS011;62699;50.534;12.784;2024-03-06T06:54:42;15.57;;;7.97;;
73893;SDS011;62699;50.534;12.784;2024-03-06T06:59:42;16.13;;;7.65;;
73893;SDS011;62699;50.534;12.784;2024-03-06T07:04:42;17.50;;;9.20;;
73893;SDS011;62699;50.534;12.784;2024-03-06T07:09:43;21.30;;;10.85;;
73893;SDS011;62699;50.534;12.784;2024-03-06T07:14:43;26.38;;;12.75;;
73893;SDS011;62699;50.534;12.784;2024-03-06T07:19:44;20.20;;;10.90;;
73893;SDS011;62699;50.534;12.784;2024-03-06T07:24:44;19.20;;;11.30;;
73893;SDS011;62699;50.534;12.784;2024-03-06T07:29:44;17.42;;;9.75;;
73893;SDS011;62699;50.534;12.784;2024-03-06T07:34:44;18.45;;;10.05;;
73893;SDS011;62699;50.534;12.784;2024-03-06T07:39:45;16.58;;;8.68;;
73893;SDS011;62699;50.534;12.784;2024-03-06T07:44:45;16.50;;;8.57;;
73893;SDS011;62699;50.534;12.784;2024-03-06T07:49:46;17.63;;;9.90;;
73893;SDS011;62699;50.534;12.784;2024-03-06T07:54:46;17.42;;;9.82;;
73893;SDS011;62699;50.534;12.784;2024-03-06T07:59:47;19.85;;;10.93;;
73893;SDS011;62699;50.534;12.784;2024-03-06T08:04:48;43.40;;;31.00;;
73893;SDS011;62699;50.534;12.784;2024-03-06T08:09:48;24.77;;;15.00;;
73893;SDS011;62699;50.534;12.784;2024-03-06T08:14:48;22.33;;;12.18;;
73893;SDS011;62699;50.534;12.784;2024-03-06T08:19:49;31.95;;;19.48;;
73893;SDS011;62699;50.534;12.784;2024-03-06T08:24:49;27.48;;;15.05;;
73893;SDS011;62699;50.534;12.784;2024-03-06T08:29:50;25.65;;;13.55;;
73893;SDS011;62699;50.534;12.784;2024-03-06T08:34:50;27.52;;;14.07;;
73893;SDS011;62699;50.534;12.784;2024-03-06T08:39:50;34.97;;;17.17;;
73893;SDS011;62699;50.534;12.784;2024-03-06T08:44:50;41.97;;;21.75;;
73893;SDS011;62699;50.534;12.784;2024-03-06T08:49:51;37.75;;;18.50;;
73893;SDS011;62699;50.534;12.784;2024-03-06T08:54:51;45.92;;;21.85;;
73893;SDS011;62699;50.534;12.784;2024-03-06T08:59:51;43.63;;;22.92;;
73893;SDS011;62699;50.534;12.784;2024-03-06T09:04:52;41.63;;;22.55;;
73893;SDS011;62699;50.534;12.784;2024-03-06T09:09:52;40.35;;;20.88;;
73893;SDS011;62699;50.534;12.784;2024-03-06T09:14:53;42.33;;;21.60;;
73893;SDS011;62699;50.534;12.784;2024-03-06T09:19:53;47.60;;;25.02;;
73893;SDS011;62699;50.534;12.784;2024-03-06T09:24:54;37.20;;;20.67;;
73893;SDS011;62699;50.534;12.784;2024-03-06T09:29:54;44.83;;;21.10;;
73893;SDS011;62699;50.534;12.784;2024-03-06T09:34:54;40.22;;;19.50;;
73893;SDS011;62699;50.534;12.784;2024-03-06T09:39:54;36.42;;;19.65;;
73893;SDS011;62699;50.534;12.784;2024-03-06T09:44:56;36.05;;;18.30;;
73893;SDS011;62699;50.534;12.784;2024-03-06T09:49:56;31.90;;;15.20;;
73893;SDS011;62699;50.534;12.784;2024-03-06T09:54:56;35.50;;;18.05;;
73893;SDS011;62699;50.534;12.784;2024-03-06T09:59:57;29.08;;;15.68;;
73893;SDS011;62699;50.534;12.784;2024-03-06T10:04:57;36.28;;;16.88;;
73893;SDS011;62699;50.534;12.784;2024-03-06T10:09:58;30.00;;;15.15;;
73893;SDS011;62699;50.534;12.784;2024-03-06T10:14:58;28.92;;;14.43;;
73893;SDS011;62699;50.534;12.784;2024-03-06T10:19:58;28.02;;;14.43;;
73893;SDS011;62699;50.534;12.784;2024-03-06T10:25:01;28.63;;;15.50;;
73893;SDS011;62699;50.534;12.784;2024-03-06T10:30:02;56.13;;;29.10;;
73893;SDS011;62699;50.534;12.784;2024-03-06T10:35:04;27.42;;;13.90;;
73893;SDS011;62699;50.534;12.784;2024-03-06T10:40:06;25.45;;;13.40;;
73893;SDS011;62699;50.534;12.784;2024-03-06T10:45:15;24.98;;;12.65;;
73893;SDS011;62699;50.534;12.784;2024-03-06T10:50:16;23.45;;;13.15;;
73893;SDS011;62699;50.534;12.784;2024-03-06T10:55:18;23.15;;;11.35;;
73893;SDS011;62699;50.534;12.784;2024-03-06T11:00:18;26.08;;;12.20;;
73893;SDS011;62699;50.534;12.784;2024-03-06T11:05:19;23.13;;;11.23;;
73893;SDS011;62699;50.534;12.784;2024-03-06T11:10:30;18.60;;;9.97;;
73893;SDS011;62699;50.534;12.784;2024-03-06T11:15:34;29.55;;;17.73;;
73893;SDS011;62699;50.534;12.784;2024-03-06T11:20:35;22.25;;;12.52;;
73893;SDS011;62699;50.534;12.784;2024-03-06T11:41:17;47.30;;;25.90;;
73893;SDS011;62699;50.534;12.784;2024-03-06T11:46:19;80.40;;;45.00;;
73893;SDS011;62699;50.534;12.784;2024-03-06T11:51:24;51.28;;;31.70;;
73893;SDS011;62699;50.534;12.784;2024-03-06T11:56:24;40.38;;;26.23;;
73893;SDS011;62699;50.534;12.784;2024-03-06T12:01:25;33.15;;;19.48;;
73893;SDS011;62699;50.534;12.784;2024-03-06T12:06:26;36.10;;;20.75;;
73893;SDS011;62699;50.534;12.784;2024-03-06T12:11:27;29.10;;;18.80;;
73893;SDS011;62699;50.534;12.784;2024-03-06T12:16:28;25.77;;;15.68;;
73893;SDS011;62699;50.534;12.784;2024-03-06T12:21:32;29.25;;;16.17;;
73893;SDS011;62699;50.534;12.784;2024-03-06T12:26:33;32.90;;;18.63;;
73893;SDS011;62699;50.534;12.784;2024-03-06T12:31:34;34.10;;;19.90;;
73893;SDS011;62699;50.534;12.784;2024-03-06T12:36:36;32.42;;;17.17;;
73893;SDS011;62699;50.534;12.784;2024-03-06T12:41:37;29.83;;;17.33;;
73893;SDS011;62699;50.534;12.784;2024-03-06T12:46:37;30.52;;;16.13;;
73893;SDS011;62699;50.534;12.784;2024-03-06T12:51:38;30.20;;;16.13;;
73893;SDS011;62699;50.534;12.784;2024-03-06T12:56:38;27.67;;;15.85;;
73893;SDS011;62699;50.534;12.784;2024-03-06T13:01:38;28.58;;;15.02;;
73893;SDS011;62699;50.534;12.784;2024-03-06T13:06:39;24.33;;;15.35;;
73893;SDS011;62699;50.534;12.784;2024-03-06T13:11:40;25.65;;;14.57;;
73893;SDS011;62699;50.534;12.784;2024-03-06T13:16:42;22.88;;;13.32;;
73893;SDS011;62699;50.534;12.784;2024-03-06T13:21:42;20.70;;;12.38;;
73893;SDS011;62699;50.534;12.784;2024-03-06T13:26:42;22.20;;;13.32;;
73893;SDS011;62699;50.534;12.784;2024-03-06T13:31:43;26.80;;;16.50;;
73893;SDS011;62699;50.534;12.784;2024-03-06T13:36:43;27.20;;;15.55;;
73893;SDS011;62699;50.534;12.784;2024-03-06T13:41:43;21.98;;;12.48;;
73893;SDS011;62699;50.534;12.784;2024-03-06T13:46:43;21.98;;;13.25;;
73893;SDS011;62699;50.534;12.784;2024-03-06T13:51:44;23.65;;;14.00;;
73893;SDS011;62699;50.534;12.784;2024-03-06T13:56:44;27.15;;;16.05;;
73893;SDS011;62699;50.534;12.784;2024-03-06T14:01:44;28.52;;;17.95;;
73893;SDS011;62699;50.534;12.784;2024-03-06T14:06:44;27.77;;;16.88;;
73893;SDS011;62699;50.534;12.784;2024-03-06T14:11:45;30.52;;;16.05;;
73893;SDS011;62699;50.534;12.784;2024-03-06T14:16:45;30.05;;;16.60;;
73893;SDS011;62699;50.534;12.784;2024-03-06T14:21:46;37.05;;;20.85;;
73893;SDS011;62699;50.534;12.784;2024-03-06T14:26:47;27.90;;;17.77;;
73893;SDS011;62699;50.534;12.784;2024-03-06T14:31:48;32.40;;;18.95;;
73893;SDS011;62699;50.534;12.784;2024-03-06T14:36:50;32.75;;;20.65;;
73893;SDS011;62699;50.534;12.784;2024-03-06T14:41:51;30.90;;;18.05;;
73893;SDS011;62699;50.534;12.784;2024-03-06T14:46:52;29.55;;;18.38;;
73893;SDS011;62699;50.534;12.784;2024-03-06T14:51:52;37.53;;;20.58;;
73893;SDS011;62699;50.534;12.784;2024-03-06T14:56:53;26.50;;;16.88;;
73893;SDS011;62699;50.534;12.784;2024-03-06T15:01:53;28.65;;;17.00;;
73893;SDS011;62699;50.534;12.784;2024-03-06T15:06:53;31.55;;;18.08;;
73893;SDS011;62699;50.534;12.784;2024-03-06T15:11:54;31.52;;;18.13;;
73893;SDS011;62699;50.534;12.784;2024-03-06T15:16:55;30.40;;;18.05;;
73893;SDS011;62699;50.534;12.784;2024-03-06T15:21:56;30.98;;;17.02;;
73893;SDS011;62699;50.534;12.784;2024-03-06T15:26:59;32.60;;;18.65;;
73893;SDS011;62699;50.534;12.784;2024-03-06T15:31:59;31.55;;;17.73;;
73893;SDS011;62699;50.534;12.784;2024-03-06T15:36:59;30.83;;;18.77;;
73893;SDS011;62699;50.534;12.784;2024-03-06T15:42:00;28.02;;;16.63;;
73893;SDS011;62699;50.534;12.784;2024-03-06T15:47:00;34.22;;;18.95;;
73893;SDS011;62699;50.534;12.784;2024-03-06T15:52:01;26.27;;;17.40;;
73893;SDS011;62699;50.534;12.784;2024-03-06T15:57:03;33.42;;;19.70;;
73893;SDS011;62699;50.534;12.784;2024-03-06T16:02:04;36.58;;;21.33;;
73893;SDS011;62699;50.534;12.784;2024-03-06T16:07:04;34.13;;;20.35;;
73893;SDS011;62699;50.534;12.784;2024-03-06T16:12:06;33.08;;;19.40;;
73893;SDS011;62699;50.534;12.784;2024-03-06T16:17:06;32.85;;;19.67;;
73893;SDS011;62699;50.534;12.784;2024-03-06T16:22:07;30.73;;;17.85;;
73893;SDS011;62699;50.534;12.784;2024-03-06T16:27:07;31.08;;;17.20;;
73893;SDS011;62699;50.534;12.784;2024-03-06T16:32:09;31.38;;;17.27;;
73893;SDS011;62699;50.534;12.784;2024-03-06T16:37:09;30.23;;;18.17;;
73893;SDS011;62699;50.534;12.784;2024-03-06T16:42:09;25.85;;;15.27;;
73893;SDS011;62699;50.534;12.784;2024-03-06T16:47:10;44.42;;;31.80;;
73893;SDS011;62699;50.534;12.784;2024-03-06T16:52:10;28.73;;;17.60;;
73893;SDS011;62699;50.534;12.784;2024-03-06T16:57:13;28.65;;;15.57;;
73893;SDS011;62699;50.534;12.784;2024-03-06T17:02:13;26.42;;;16.13;;
73893;SDS011;62699;50.534;12.784;2024-03-06T17:07:13;28.13;;;16.98;;
73893;SDS011;62699;50.534;12.784;2024-03-06T17:12:14;28.13;;;16.13;;
73893;SDS011;62699;50.534;12.784;2024-03-06T17:17:14;28.13;;;16.80;;
73893;SDS011;62699;50.534;12.784;2024-03-06T17:22:14;32.42;;;20.35;;
73893;SDS011;62699;50.534;12.784;2024-03-06T17:27:14;36.17;;;20.35;;
73893;SDS011;62699;50.534;12.784;2024-03-06T17:32:15;29.65;;;16.13;;
73893;SDS011;62699;50.534;12.784;2024-03-06T17:37:15;32.50;;;17.60;;
73893;SDS011;62699;50.534;12.784;2024-03-06T17:42:15;30.17;;;18.40;;
73893;SDS011;62699;50.534;12.784;2024-03-06T17:47:16;28.15;;;16.50;;
73893;SDS011;62699;50.534;12.784;2024-03-06T17:52:16;27.48;;;15.45;;
73893;SDS011;62699;50.534;12.784;2024-03-06T17:57:16;30.50;;;18.52;;
73893;SDS011;62699;50.534;12.784;2024-03-06T18:02:16;28.75;;;15.82;;
73893;SDS011;62699;50.534;12.784;2024-03-06T18:07:17;28.58;;;15.52;;
73893;SDS011;62699;50.534;12.784;2024-03-06T18:12:18;26.55;;;15.32;;
73893;SDS011;62699;50.534;12.784;2024-03-06T18:17:18;23.45;;;14.10;;
73893;SDS011;62699;50.534;12.784;2024-03-06T18:22:21;20.02;;;12.35;;
73893;SDS011;62699;50.534;12.784;2024-03-06T18:27:21;22.17;;;12.68;;
73893;SDS011;62699;50.534;12.784;2024-03-06T18:32:21;23.42;;;13.27;;
73893;SDS011;62699;50.534;12.784;2024-03-06T18:37:22;18.58;;;10.27;;
73893;SDS011;62699;50.534;12.784;2024-03-06T18:42:22;21.70;;;13.52;;
73893;SDS011;62699;50.534;12.784;2024-03-06T18:47:22;20.98;;;12.95;;
73893;SDS011;62699;50.534;12.784;2024-03-06T18:52:23;21.20;;;11.88;;
73893;SDS011;62699;50.534;12.784;2024-03-06T18:57:24;20.48;;;11.15;;
73893;SDS011;62699;50.534;12.784;2024-03-06T19:02:24;19.30;;;11.52;;
73893;SDS011;62699;50.534;12.784;2024-03-06T19:07:24;18.27;;;10.85;;
73893;SDS011;62699;50.534;12.784;2024-03-06T19:12:25;20.77;;;11.85;;
73893;SDS011;62699;50.534;12.784;2024-03-06T19:17:25;21.45;;;11.77;;
73893;SDS011;62699;50.534;12.784;2024-03-06T19:22:25;18.90;;;9.95;;
73893;SDS011;62699;50.534;12.784;2024-03-06T19:27:25;16.13;;;9.18;;
73893;SDS011;62699;50.534;12.784;2024-03-06T19:32:27;18.13;;;10.43;;
73893;SDS011;62699;50.534;12.784;2024-03-06T19:37:27;14.38;;;8.85;;
73893;SDS011;62699;50.534;12.784;2024-03-06T19:42:29;13.95;;;8.32;;
73893;SDS011;62699;50.534;12.784;2024-03-06T19:47:31;15.05;;;8.55;;
73893;SDS011;62699;50.534;12.784;2024-03-06T19:52:32;16.55;;;8.85;;
73893;SDS011;62699;50.534;12.784;2024-03-06T19:57:32;13.43;;;8.80;;
73893;SDS011;62699;50.534;12.784;2024-03-06T20:02:32;13.95;;;8.13;;
73893;SDS011;62699;50.534;12.784;2024-03-06T20:07:33;13.13;;;7.82;;
73893;SDS011;62699;50.534;12.784;2024-03-06T20:12:33;16.85;;;7.90;;
73893;SDS011;62699;50.534;12.784;2024-03-06T20:17:33;14.10;;;7.63;;
73893;SDS011;62699;50.534;12.784;2024-03-06T20:22:34;24.02;;;11.85;;
73893;SDS011;62699;50.534;12.784;2024-03-06T20:27:34;31.85;;;17.00;;
73893;SDS011;62699;50.534;12.784;2024-03-06T20:32:35;20.23;;;11.18;;
73893;SDS011;62699;50.534;12.784;2024-03-06T20:37:35;12.73;;;6.90;;
73893;SDS011;62699;50.534;12.784;2024-03-06T20:42:35;14.88;;;8.05;;
73893;SDS011;62699;50.534;12.784;2024-03-06T20:47:39;26.08;;;13.15;;
73893;SDS011;62699;50.534;12.784;2024-03-06T20:52:41;20.13;;;9.85;;
73893;SDS011;62699;50.534;12.784;2024-03-06T20:57:41;13.48;;;7.88;;
73893;SDS011;62699;50.534;12.784;2024-03-06T21:02:42;15.27;;;7.85;;
73893;SDS011;62699;50.534;12.784;2024-03-06T21:07:43;13.40;;;7.32;;
73893;SDS011;62699;50.534;12.784;2024-03-06T21:12:43;13.57;;;8.35;;
73893;SDS011;62699;50.534;12.784;2024-03-06T21:17:50;13.68;;;8.40;;
73893;SDS011;62699;50.534;12.784;2024-03-06T21:22:50;16.40;;;8.55;;
73893;SDS011;62699;50.534;12.784;2024-03-06T21:27:50;20.33;;;10.45;;
73893;SDS011;62699;50.534;12.784;2024-03-06T21:32:50;18.38;;;10.65;;
73893;SDS011;62699;50.534;12.784;2024-03-06T21:37:51;18.25;;;10.63;;
73893;SDS011;62699;50.534;12.784;2024-03-06T21:42:51;16.60;;;10.38;;
73893;SDS011;62699;50.534;12.784;2024-03-06T21:47:52;16.95;;;10.70;;
73893;SDS011;62699;50.534;12.784;2024-03-06T21:52:52;17.58;;;9.73;;
73893;SDS011;62699;50.534;12.784;2024-03-06T21:57:52;20.48;;;11.73;;
73893;SDS011;62699;50.534;12.784;2024-03-06T22:02:52;21.04;;;11.22;;
73893;SDS011;62699;50.534;12.784;2024-03-06T22:07:53;17.55;;;10.68;;
73893;SDS011;62699;50.534;12.784;2024-03-06T22:12:53;20.10;;;12.20;;
73893;SDS011;62699;50.534;12.784;2024-03-06T22:17:53;22.05;;;12.15;;
73893;SDS011;62699;50.534;12.784;2024-03-06T22:22:54;20.83;;;12.00;;
73893;SDS011;62699;50.534;12.784;2024-03-06T22:27:54;22.67;;;13.23;;
73893;SDS011;62699;50.534;12.784;2024-03-06T22:32:54;22.50;;;12.18;;
73893;SDS011;62699;50.534;12.784;2024-03-06T22:37:54;22.67;;;14.00;;
73893;SDS011;62699;50.534;12.784;2024-03-06T22:42:55;21.65;;;12.90;;
73893;SDS011;62699;50.534;12.784;2024-03-06T22:47:58;28.98;;;13.35;;
73893;SDS011;62699;50.534;12.784;2024-03-06T22:52:58;25.00;;;14.05;;
73893;SDS011;62699;50.534;12.784;2024-03-06T22:58:01;24.73;;;13.65;;
73893;SDS011;62699;50.534;12.784;2024-03-06T23:03:03;23.10;;;13.23;;
73893;SDS011;62699;50.534;12.784;2024-03-06T23:08:05;23.85;;;13.90;;
73893;SDS011;62699;50.534;12.784;2024-03-06T23:13:11;21.73;;;12.07;;
73893;SDS011;62699;50.534;12.784;2024-03-06T23:18:14;24.58;;;14.57;;
73893;SDS011;62699;50.534;12.784;2024-03-06T23:23:15;25.65;;;13.27;;
73893;SDS011;62699;50.534;12.784;2024-03-06T23:28:15;22.58;;;13.70;;
73893;SDS011;62699;50.534;12.784;2024-03-06T23:33:16;25.60;;;14.23;;
73893;SDS011;62699;50.534;12.784;2024-03-06T23:38:16;25.17;;;14.30;;
73893;SDS011;62699;50.534;12.784;2024-03-06T23:43:16;25.13;;;13.15;;
73893;SDS011;62699;50.534;12.784;2024-03-06T23:48:17;25.77;;;13.80;;
73893;SDS011;62699;50.534;12.784;2024-03-06T23:53:17;28.20;;;15.55;;
73893;SDS011;62699;50.534;12.784;2024-03-06T23:58:17;28.23;;;15.35;;
